Time;durP1;ratioP1;P1;durP2;ratioP2;P2;SDS_P1;SDS_P2;PMS_P1;PMS_P2;Temp;Humidity;BMP_temperature;BMP_pressure;BME280_temperature;BME280_humidity;BME280_pressure;Samples;Min_cycle;Max_cycle;Signal;HPM_P1;HPM_P2
2024/01/19 00:02:17;;;;;;;78.97;53.13;;;;;;;;;;10185027;28;20043;-72
2024/01/19 00:07:09;;;;;;;63.40;47.05;;;;;;;;;;10186694;28;20044;-71
2024/01/19 00:12:01;;;;;;;76.55;52.03;;;;;;;;;;10185611;28;20048;-70
2024/01/19 00:16:53;;;;;;;71.13;49.40;;;;;;;;;;10185285;28;20071;-72
2024/01/19 00:21:45;;;;;;;76.47;51.33;;;;;;;;;;10185963;28;20598;-71
2024/01/19 00:26:37;;;;;;;91.00;55.25;;;;;;;;;;10184868;28;20075;-71
2024/01/19 00:31:29;;;;;;;88.68;52.03;;;;;;;;;;10184750;28;20397;-70
2024/01/19 00:36:22;;;;;;;100.75;55.33;;;;;;;;;;10184433;28;20093;-71
2024/01/19 00:41:14;;;;;;;99.47;54.92;;;;;;;;;;10185203;28;20040;-71
2024/01/19 00:46:07;;;;;;;98.70;56.20;;;;;;;;;;10184050;28;20122;-71
2024/01/19 00:50:58;;;;;;;84.47;52.22;;;;;;;;;;10185109;28;20414;-71
2024/01/19 00:55:50;;;;;;;96.63;54.40;;;;;;;;;;10184252;28;20135;-71
2024/01/19 01:00:42;;;;;;;85.25;52.17;;;;;;;;;;10184534;28;20052;-71
2024/01/19 01:05:34;;;;;;;86.07;51.40;;;;;;;;;;10184556;28;20174;-71
2024/01/19 01:10:26;;;;;;;87.43;54.95;;;;;;;;;;10183519;28;20637;-70
2024/01/19 01:15:18;;;;;;;90.03;55.78;;;;;;;;;;10184363;28;20117;-71
2024/01/19 01:20:11;;;;;;;95.97;56.10;;;;;;;;;;10181854;28;20097;-71
2024/01/19 01:25:03;;;;;;;88.50;55.13;;;;;;;;;;10183323;28;20048;-71
2024/01/19 01:29:55;;;;;;;104.78;62.15;;;;;;;;;;10184467;28;20465;-71
2024/01/19 01:34:47;;;;;;;93.03;54.88;;;;;;;;;;10183768;28;20528;-72
2024/01/19 01:39:39;;;;;;;89.00;54.22;;;;;;;;;;10183285;28;20040;-71
2024/01/19 01:44:32;;;;;;;80.25;52.08;;;;;;;;;;10184229;28;20542;-71
2024/01/19 01:49:24;;;;;;;92.03;55.58;;;;;;;;;;10189259;28;20042;-71
2024/01/19 01:54:16;;;;;;;102.22;53.60;;;;;;;;;;10191224;28;20048;-71
2024/01/19 01:59:08;;;;;;;89.03;53.35;;;;;;;;;;10173534;28;20135;-71
2024/01/19 02:04:00;;;;;;;131.70;43.58;;;;;;;;;;10173432;28;20050;-71
2024/01/19 02:08:52;;;;;;;99.05;38.80;;;;;;;;;;10191118;28;20044;-71
2024/01/19 02:13:44;;;;;;;129.27;41.50;;;;;;;;;;10176310;28;20043;-71
2024/01/19 02:18:36;;;;;;;88.72;38.00;;;;;;;;;;10174518;28;20093;-72
2024/01/19 02:23:34;;;;;;;61.65;38.78;;;;;;;;;;10152417;28;20115;-72
2024/01/19 02:28:26;;;;;;;106.60;42.97;;;;;;;;;;10151198;28;20517;-72
2024/01/19 02:33:18;;;;;;;62.80;42.45;;;;;;;;;;10151852;28;20048;-72
2024/01/19 02:38:10;;;;;;;74.13;40.08;;;;;;;;;;10152205;28;20048;-72
2024/01/19 02:43:02;;;;;;;96.25;39.80;;;;;;;;;;10151742;28;20081;-71
2024/01/19 02:47:54;;;;;;;67.32;37.72;;;;;;;;;;10151620;28;20045;-72
2024/01/19 02:52:46;;;;;;;62.63;41.55;;;;;;;;;;10151606;28;20043;-72
2024/01/19 02:57:37;;;;;;;63.80;40.58;;;;;;;;;;10151084;28;20090;-72
2024/01/19 03:02:29;;;;;;;84.88;40.33;;;;;;;;;;10149393;28;20102;-71
2024/01/19 03:07:22;;;;;;;54.78;38.20;;;;;;;;;;10151282;28;20523;-72
2024/01/19 03:12:14;;;;;;;84.60;37.67;;;;;;;;;;10150587;28;20085;-72
2024/01/19 03:17:06;;;;;;;63.90;40.15;;;;;;;;;;10151087;28;20048;-72
2024/01/19 03:21:58;;;;;;;67.10;40.70;;;;;;;;;;10149426;28;20422;-71
2024/01/19 03:26:50;;;;;;;68.50;41.65;;;;;;;;;;10150917;28;20044;-72
2024/01/19 03:31:42;;;;;;;66.63;41.28;;;;;;;;;;10150433;28;20040;-72
2024/01/19 03:36:35;;;;;;;80.57;45.50;;;;;;;;;;10149634;28;20139;-72
2024/01/19 03:41:27;;;;;;;91.50;43.28;;;;;;;;;;10149176;28;20094;-72
2024/01/19 03:46:19;;;;;;;61.63;38.60;;;;;;;;;;10149515;28;20045;-72
2024/01/19 03:51:11;;;;;;;62.08;40.55;;;;;;;;;;10159032;28;20370;-71
2024/01/19 03:56:03;;;;;;;57.17;41.40;;;;;;;;;;10165403;28;20049;-72
2024/01/19 04:00:55;;;;;;;51.88;37.10;;;;;;;;;;10149685;28;20420;-72
2024/01/19 04:05:47;;;;;;;48.65;36.20;;;;;;;;;;10166162;28;20086;-71
2024/01/19 04:10:39;;;;;;;52.67;37.95;;;;;;;;;;10149329;28;20109;-72
2024/01/19 04:15:31;;;;;;;52.17;37.45;;;;;;;;;;10149521;28;20456;-71
2024/01/19 04:20:23;;;;;;;49.90;34.83;;;;;;;;;;10148467;28;20066;-71
2024/01/19 04:25:15;;;;;;;51.10;37.28;;;;;;;;;;10149903;28;20438;-71
2024/01/19 04:30:07;;;;;;;52.13;37.72;;;;;;;;;;10146929;28;20479;-70
2024/01/19 04:34:59;;;;;;;48.50;37.17;;;;;;;;;;10148211;28;20044;-71
2024/01/19 04:39:51;;;;;;;55.08;36.70;;;;;;;;;;10146938;28;20076;-72
2024/01/19 04:44:44;;;;;;;56.15;38.88;;;;;;;;;;10147114;28;20379;-71
2024/01/19 04:49:36;;;;;;;50.85;36.80;;;;;;;;;;10147298;28;20040;-71
2024/01/19 04:54:28;;;;;;;58.28;40.47;;;;;;;;;;10146704;28;20471;-72
2024/01/19 04:59:20;;;;;;;61.55;40.15;;;;;;;;;;10146963;28;20125;-71
2024/01/19 05:04:12;;;;;;;68.63;45.28;;;;;;;;;;10146740;28;20079;-71
2024/01/19 05:09:05;;;;;;;64.43;43.00;;;;;;;;;;10146033;28;20521;-71
2024/01/19 05:13:57;;;;;;;69.25;44.45;;;;;;;;;;10147474;28;20083;-71
2024/01/19 05:18:49;;;;;;;60.38;42.53;;;;;;;;;;10145657;28;20351;-71
2024/01/19 05:23:41;;;;;;;63.55;43.20;;;;;;;;;;10145720;28;20075;-72
2024/01/19 05:28:33;;;;;;;59.00;40.72;;;;;;;;;;10145898;28;20066;-71
2024/01/19 05:33:25;;;;;;;57.17;39.58;;;;;;;;;;10146401;28;20049;-71
2024/01/19 05:38:18;;;;;;;56.72;40.85;;;;;;;;;;10144889;28;20058;-72
2024/01/19 05:43:10;;;;;;;48.17;36.33;;;;;;;;;;10141650;28;20425;-71
2024/01/19 05:48:02;;;;;;;50.88;36.45;;;;;;;;;;10144598;28;20463;-72
2024/01/19 05:52:54;;;;;;;44.20;34.33;;;;;;;;;;10150504;28;20433;-71
2024/01/19 05:57:46;;;;;;;48.83;37.42;;;;;;;;;;10145345;28;20545;-72
2024/01/19 06:02:37;;;;;;;53.15;40.80;;;;;;;;;;10143928;28;20043;-71
2024/01/19 06:07:32;;;;;;;53.45;38.95;;;;;;;;;;10143765;28;20072;-71
2024/01/19 06:12:24;;;;;;;47.15;35.22;;;;;;;;;;10147152;28;20051;-71
2024/01/19 06:17:16;;;;;;;47.58;33.92;;;;;;;;;;10144961;28;20573;-71
2024/01/19 06:22:07;;;;;;;48.78;36.25;;;;;;;;;;10141964;28;20353;-71
2024/01/19 06:26:59;;;;;;;53.90;35.10;;;;;;;;;;10156529;28;20052;-70
2024/01/19 06:31:51;;;;;;;51.60;31.80;;;;;;;;;;10140164;28;20072;-71
2024/01/19 06:36:44;;;;;;;38.00;27.13;;;;;;;;;;10149977;28;20084;-70
2024/01/19 06:41:40;;;;;;;46.00;30.13;;;;;;;;;;10151717;28;20068;-70
2024/01/19 06:46:32;;;;;;;45.50;31.27;;;;;;;;;;10150997;28;20040;-70
2024/01/19 06:51:26;;;;;;;40.30;28.75;;;;;;;;;;10152295;28;20033;-70
2024/01/19 06:56:18;;;;;;;39.25;26.48;;;;;;;;;;10150313;28;20160;-71
2024/01/19 07:01:10;;;;;;;44.95;31.02;;;;;;;;;;10175294;28;20382;-70
2024/01/19 07:06:02;;;;;;;39.85;28.05;;;;;;;;;;10182632;28;20052;-70
2024/01/19 07:10:54;;;;;;;38.80;28.73;;;;;;;;;;10184502;28;20469;-69
2024/01/19 07:15:47;;;;;;;42.50;29.75;;;;;;;;;;10184183;28;20044;-69
2024/01/19 07:20:39;;;;;;;40.78;28.23;;;;;;;;;;10186386;28;20056;-70
2024/01/19 07:25:31;;;;;;;43.88;28.58;;;;;;;;;;10186416;28;20040;-70
2024/01/19 07:30:23;;;;;;;43.47;29.88;;;;;;;;;;10184529;28;20658;-70
2024/01/19 07:35:15;;;;;;;45.38;32.08;;;;;;;;;;10185546;28;20040;-70
2024/01/19 07:40:08;;;;;;;53.83;36.50;;;;;;;;;;10186151;28;20375;-70
2024/01/19 07:45:00;;;;;;;53.78;38.72;;;;;;;;;;10185264;28;20066;-70
2024/01/19 07:49:52;;;;;;;64.72;44.08;;;;;;;;;;10185051;28;20070;-70
2024/01/19 07:54:44;;;;;;;90.20;49.80;;;;;;;;;;10186256;28;20051;-72
2024/01/19 07:59:36;;;;;;;63.95;44.55;;;;;;;;;;10183451;28;20040;-71
2024/01/19 08:04:28;;;;;;;69.43;45.55;;;;;;;;;;10184284;28;20520;-72
2024/01/19 08:09:20;;;;;;;68.78;45.40;;;;;;;;;;10185082;28;20044;-72
2024/01/19 08:14:13;;;;;;;67.80;44.78;;;;;;;;;;10184127;28;20080;-72
2024/01/19 08:19:04;;;;;;;65.95;47.20;;;;;;;;;;10148106;28;20086;-72
2024/01/19 08:23:57;;;;;;;74.22;47.20;;;;;;;;;;10147714;28;20040;-72
2024/01/19 08:28:49;;;;;;;75.22;48.83;;;;;;;;;;10146792;28;20072;-72
2024/01/19 08:33:41;;;;;;;82.85;50.00;;;;;;;;;;10147716;28;20071;-72
2024/01/19 08:38:33;;;;;;;75.00;50.85;;;;;;;;;;10152165;28;20048;-72
2024/01/19 08:43:25;;;;;;;76.28;50.42;;;;;;;;;;10145839;28;20044;-72
2024/01/19 08:48:17;;;;;;;79.38;52.40;;;;;;;;;;10147100;28;20116;-72
2024/01/19 08:53:09;;;;;;;84.47;52.55;;;;;;;;;;10154736;28;20055;-71
2024/01/19 08:58:01;;;;;;;72.55;49.55;;;;;;;;;;10145536;28;20044;-72
2024/01/19 09:02:53;;;;;;;80.97;54.17;;;;;;;;;;10145583;28;20044;-71
2024/01/19 09:07:54;;;;;;;71.72;47.72;;;;;;;;;;10147449;28;20383;-73
2024/01/19 09:12:46;;;;;;;77.45;49.63;;;;;;;;;;10145476;28;20056;-72
2024/01/19 09:17:38;;;;;;;75.55;49.80;;;;;;;;;;10145863;28;20127;-72
2024/01/19 09:22:30;;;;;;;72.65;46.30;;;;;;;;;;10145343;28;20430;-76
2024/01/19 09:27:22;;;;;;;88.07;49.33;;;;;;;;;;10149696;28;20071;-75
2024/01/19 09:32:16;;;;;;;76.43;49.40;;;;;;;;;;10151990;28;20189;-75
2024/01/19 09:37:08;;;;;;;72.10;48.40;;;;;;;;;;10150973;28;20375;-76
2024/01/19 09:42:03;;;;;;;66.88;44.45;;;;;;;;;;10147037;28;20106;-75
2024/01/19 09:47:21;;;;;;;69.50;45.28;;;;;;;;;;10148610;28;20084;-75
2024/01/19 09:52:15;;;;;;;74.93;46.45;;;;;;;;;;10148026;28;20437;-76
2024/01/19 09:57:08;;;;;;;65.65;45.25;;;;;;;;;;10145119;28;20140;-75
2024/01/19 10:02:00;;;;;;;67.05;44.35;;;;;;;;;;10146326;28;20495;-75
2024/01/19 10:06:54;;;;;;;74.57;44.92;;;;;;;;;;10152720;28;20044;-77
2024/01/19 10:11:50;;;;;;;65.70;42.33;;;;;;;;;;10152233;28;20092;-77
2024/01/19 10:16:42;;;;;;;72.07;44.72;;;;;;;;;;10154799;28;20055;-77
2024/01/19 10:21:34;;;;;;;69.22;41.80;;;;;;;;;;10134250;28;20049;-77
2024/01/19 10:26:26;;;;;;;61.83;38.80;;;;;;;;;;10152472;28;20099;-77
2024/01/19 10:31:21;;;;;;;57.47;37.38;;;;;;;;;;10153638;28;20032;-77
2024/01/19 10:36:13;;;;;;;61.70;39.03;;;;;;;;;;10153047;28;20489;-77
2024/01/19 10:41:16;;;;;;;62.75;37.45;;;;;;;;;;10151339;28;20036;-78
2024/01/19 10:46:26;;;;;;;64.68;38.22;;;;;;;;;;10151381;28;20146;-78
2024/01/19 10:51:21;;;;;;;63.08;35.42;;;;;;;;;;10151135;28;20048;-78
2024/01/19 10:56:20;;;;;;;62.67;40.58;;;;;;;;;;10133813;28;20940;-78
2024/01/19 11:01:16;;;;;;;53.50;35.83;;;;;;;;;;10151764;28;20072;-78
2024/01/19 11:06:09;;;;;;;58.63;35.13;;;;;;;;;;10149955;28;20085;-77
2024/01/19 11:11:04;;;;;;;59.72;37.45;;;;;;;;;;10152532;28;20065;-78
2024/01/19 11:15:59;;;;;;;56.53;35.85;;;;;;;;;;10152549;28;20445;-77
2024/01/19 11:20:52;;;;;;;53.45;37.75;;;;;;;;;;10146104;28;20040;-78
2024/01/19 11:26:14;;;;;;;63.40;35.45;;;;;;;;;;10135443;28;20120;-78
2024/01/19 11:31:17;;;;;;;51.38;34.65;;;;;;;;;;10133614;28;20040;-78
2024/01/19 11:36:10;;;;;;;59.03;33.97;;;;;;;;;;10150332;28;20044;-77
2024/01/19 11:41:05;;;;;;;61.55;38.95;;;;;;;;;;10153848;28;20067;-77
2024/01/19 11:45:56;;;;;;;62.10;38.22;;;;;;;;;;10131411;28;20048;-78
2024/01/19 11:50:51;;;;;;;71.50;41.17;;;;;;;;;;10145982;28;20048;-77
2024/01/19 11:55:48;;;;;;;74.25;43.70;;;;;;;;;;10150725;28;20412;-78
2024/01/19 12:00:40;;;;;;;80.15;45.88;;;;;;;;;;10168813;28;20134;-78
2024/01/19 12:05:34;;;;;;;79.30;44.22;;;;;;;;;;10169734;28;20128;-78
2024/01/19 12:10:26;;;;;;;88.50;45.42;;;;;;;;;;10149494;28;20078;-78
2024/01/19 12:15:18;;;;;;;89.15;49.78;;;;;;;;;;10149317;28;20379;-77
2024/01/19 12:20:15;;;;;;;79.82;47.08;;;;;;;;;;10159140;28;20048;-77
2024/01/19 12:25:16;;;;;;;79.03;47.63;;;;;;;;;;10148069;28;20052;-78
2024/01/19 12:30:16;;;;;;;82.07;45.38;;;;;;;;;;10149475;28;20532;-78
2024/01/19 12:35:07;;;;;;;;;;;;;;;;;;10145254;28;20048;-77
2024/01/19 12:40:19;;;;;;;92.47;51.80;;;;;;;;;;10147513;28;19972;-76
2024/01/19 12:45:12;;;;;;;88.35;51.80;;;;;;;;;;10128310;28;20048;-77
2024/01/19 12:50:04;;;;;;;93.70;54.03;;;;;;;;;;10147770;28;20040;-75
2024/01/19 12:55:05;;;;;;;91.30;58.92;;;;;;;;;;10146702;28;20078;-74
2024/01/19 13:00:11;;;;;;;34.40;21.88;;;;;;;;;;10147334;28;20048;-74
2024/01/19 13:05:04;;;;;;;17.45;10.73;;;;;;;;;;10152498;28;20048;-76
2024/01/19 13:10:03;;;;;;;4.80;3.53;;;;;;;;;;10145080;28;20055;-77
2024/01/19 13:15:10;;;;;;;10.13;3.58;;;;;;;;;;10146601;28;20075;-77
2024/01/19 13:20:04;;;;;;;3.03;2.75;;;;;;;;;;10146262;28;20048;-77
2024/01/19 13:24:56;;;;;;;4.82;2.70;;;;;;;;;;10145911;28;20075;-78
2024/01/19 13:29:48;;;;;;;7.30;2.80;;;;;;;;;;10152273;28;20106;-77
2024/01/19 13:34:41;;;;;;;13.10;7.35;;;;;;;;;;10151677;28;20042;-78
2024/01/19 13:39:33;;;;;;;9.70;6.80;;;;;;;;;;10146019;28;20062;-78
2024/01/19 13:44:25;;;;;;;4.80;3.40;;;;;;;;;;10144274;28;20052;-77
2024/01/19 13:49:18;;;;;;;13.75;4.78;;;;;;;;;;10128803;28;20157;-76
2024/01/19 13:54:10;;;;;;;7.00;4.63;;;;;;;;;;10144967;28;20383;-78
2024/01/19 13:59:01;;;;;;;12.18;3.60;;;;;;;;;;10144945;28;20063;-77
2024/01/19 14:03:53;;;;;;;7.40;5.05;;;;;;;;;;10145752;28;20063;-79
2024/01/19 14:08:51;;;;;;;2.47;2.22;;;;;;;;;;10127431;28;20067;-77
2024/01/19 14:13:43;;;;;;;7.72;4.35;;;;;;;;;;10145933;28;20507;-76
2024/01/19 14:18:35;;;;;;;6.90;4.15;;;;;;;;;;10144106;28;20475;-78
2024/01/19 14:23:27;;;;;;;11.40;4.13;;;;;;;;;;10160541;28;20036;-77
2024/01/19 14:28:19;;;;;;;5.85;2.70;;;;;;;;;;10167777;28;20043;-77
2024/01/19 14:33:11;;;;;;;16.52;9.43;;;;;;;;;;10175662;28;20043;-78
2024/01/19 14:38:05;;;;;;;4.55;3.25;;;;;;;;;;10157348;28;20051;-77
2024/01/19 14:42:57;;;;;;;7.65;5.20;;;;;;;;;;10157443;28;20169;-79
2024/01/19 14:47:52;;;;;;;13.25;5.47;;;;;;;;;;10163526;28;20052;-77
2024/01/19 14:52:44;;;;;;;5.75;4.05;;;;;;;;;;10156478;28;20102;-77
2024/01/19 14:57:37;;;;;;;3.55;2.50;;;;;;;;;;10142971;28;20065;-77
2024/01/19 15:02:29;;;;;;;5.85;3.47;;;;;;;;;;10173790;28;20040;-76
2024/01/19 15:07:21;;;;;;;7.38;3.60;;;;;;;;;;10159624;28;20376;-77
2024/01/19 15:12:13;;;;;;;6.72;3.30;;;;;;;;;;10156291;28;20060;-77
2024/01/19 15:17:05;;;;;;;5.85;3.47;;;;;;;;;;10173901;28;20225;-77
2024/01/19 15:21:57;;;;;;;3.25;2.55;;;;;;;;;;10168246;28;20048;-78
2024/01/19 15:26:49;;;;;;;3.92;3.53;;;;;;;;;;10158923;28;20391;-78
2024/01/19 15:31:42;;;;;;;7.35;4.88;;;;;;;;;;10167844;28;20130;-77
2024/01/19 15:36:34;;;;;;;5.00;4.03;;;;;;;;;;10172912;28;20502;-79
2024/01/19 15:41:26;;;;;;;6.63;4.15;;;;;;;;;;10170760;28;20044;-80
2024/01/19 15:46:26;;;;;;;4.57;2.58;;;;;;;;;;10148466;28;20464;-79
2024/01/19 15:51:22;;;;;;;5.10;3.40;;;;;;;;;;10173955;28;20978;-79
2024/01/19 15:56:26;;;;;;;5.32;3.17;;;;;;;;;;10154832;28;20074;-78
2024/01/19 16:01:28;;;;;;;2.67;2.45;;;;;;;;;;10158778;28;20052;-79
2024/01/19 16:06:20;;;;;;;3.10;2.25;;;;;;;;;;10161480;28;20040;-78
2024/01/19 16:11:12;;;;;;;3.45;2.95;;;;;;;;;;10167952;28;20041;-78
2024/01/19 16:16:08;;;;;;;6.22;3.65;;;;;;;;;;10155961;28;20082;-79
2024/01/19 16:21:00;;;;;;;2.95;2.65;;;;;;;;;;10162120;28;20043;-78
2024/01/19 16:25:52;;;;;;;7.13;3.65;;;;;;;;;;10172517;28;20040;-78
2024/01/19 16:30:44;;;;;;;6.10;2.92;;;;;;;;;;10168017;28;20052;-78
2024/01/19 16:35:37;;;;;;;4.25;2.72;;;;;;;;;;10160783;28;20044;-79
2024/01/19 16:40:29;;;;;;;4.35;3.95;;;;;;;;;;10159342;28;20085;-79
2024/01/19 16:45:21;;;;;;;7.43;4.18;;;;;;;;;;10169147;28;20075;-77
2024/01/19 16:50:13;;;;;;;3.83;3.40;;;;;;;;;;10158451;28;20068;-77
2024/01/19 16:55:06;;;;;;;3.78;3.55;;;;;;;;;;10162752;28;20064;-77
2024/01/19 16:59:58;;;;;;;4.63;4.22;;;;;;;;;;10149199;28;20117;-78
2024/01/19 17:04:50;;;;;;;4.07;3.67;;;;;;;;;;10146298;28;20393;-74
2024/01/19 17:09:42;;;;;;;6.80;4.28;;;;;;;;;;10154818;28;20084;-75
2024/01/19 17:14:35;;;;;;;5.95;5.45;;;;;;;;;;10141925;28;20066;-76
2024/01/19 17:19:27;;;;;;;6.80;4.93;;;;;;;;;;10144127;28;20045;-77
2024/01/19 17:24:20;;;;;;;4.47;4.07;;;;;;;;;;10145713;28;20040;-75
2024/01/19 17:29:12;;;;;;;8.80;6.05;;;;;;;;;;10150999;28;20379;-81
2024/01/19 17:34:05;;;;;;;6.50;5.88;;;;;;;;;;10145969;28;20064;-75
2024/01/19 17:39:02;;;;;;;14.95;12.52;;;;;;;;;;10149335;28;20125;-76
2024/01/19 17:43:54;;;;;;;8.27;7.50;;;;;;;;;;10144876;28;20044;-77
2024/01/19 17:48:47;;;;;;;7.32;6.63;;;;;;;;;;10146560;28;20105;-76
2024/01/19 17:53:40;;;;;;;9.82;8.82;;;;;;;;;;10146214;28;20136;-76
2024/01/19 17:58:31;;;;;;;7.13;6.50;;;;;;;;;;10148668;28;20384;-76
2024/01/19 18:03:26;;;;;;;6.93;5.90;;;;;;;;;;10146170;28;20375;-77
2024/01/19 18:08:18;;;;;;;7.30;6.70;;;;;;;;;;10128477;28;20420;-76
2024/01/19 18:13:10;;;;;;;6.72;6.07;;;;;;;;;;10150401;28;20098;-77
2024/01/19 18:18:02;;;;;;;9.43;6.95;;;;;;;;;;10148939;28;20054;-76
2024/01/19 18:22:55;;;;;;;10.15;7.93;;;;;;;;;;10140126;28;20105;-77
2024/01/19 18:27:47;;;;;;;7.22;6.45;;;;;;;;;;10141825;28;20095;-78
2024/01/19 18:32:40;;;;;;;7.97;6.60;;;;;;;;;;10150942;28;20048;-77
2024/01/19 18:37:33;;;;;;;5.78;5.28;;;;;;;;;;10154357;28;20058;-76
2024/01/19 18:42:25;;;;;;;6.53;5.82;;;;;;;;;;10151127;28;20037;-77
2024/01/19 18:47:17;;;;;;;6.65;5.95;;;;;;;;;;10151377;28;20098;-76
2024/01/19 18:52:08;;;;;;;9.40;8.60;;;;;;;;;;10152300;28;20357;-77
2024/01/19 18:57:00;;;;;;;11.20;10.20;;;;;;;;;;10155707;28;20078;-78
2024/01/19 19:01:53;;;;;;;9.23;8.38;;;;;;;;;;10151583;28;20044;-75
2024/01/19 19:06:45;;;;;;;9.27;8.38;;;;;;;;;;10150882;28;20127;-76
2024/01/19 19:11:37;;;;;;;16.45;12.00;;;;;;;;;;10147902;28;20105;-72
2024/01/19 19:16:29;;;;;;;8.48;7.05;;;;;;;;;;10150450;28;20040;-71
2024/01/19 19:21:36;;;;;;;7.93;5.97;;;;;;;;;;10149886;28;20138;-72
2024/01/19 19:26:28;;;;;;;7.00;6.40;;;;;;;;;;10150067;28;20406;-72
2024/01/19 19:31:20;;;;;;;6.30;5.28;;;;;;;;;;10153710;28;20032;-71
2024/01/19 19:36:13;;;;;;;6.60;6.00;;;;;;;;;;10149554;28;20531;-72
2024/01/19 19:41:05;;;;;;;6.15;5.43;;;;;;;;;;10151468;28;20045;-76
2024/01/19 19:45:58;;;;;;;10.43;7.97;;;;;;;;;;10152535;28;20051;-74
2024/01/19 19:50:49;;;;;;;4.80;4.30;;;;;;;;;;10156683;28;20052;-74
2024/01/19 19:55:47;;;;;;;4.68;4.25;;;;;;;;;;10149906;28;20098;-73
2024/01/19 20:00:39;;;;;;;9.82;7.22;;;;;;;;;;10155357;28;20036;-74
2024/01/19 20:05:31;;;;;;;5.30;4.80;;;;;;;;;;10148488;28;20040;-74
2024/01/19 20:10:23;;;;;;;4.10;3.70;;;;;;;;;;10152764;28;20036;-74
2024/01/19 20:15:16;;;;;;;6.22;4.25;;;;;;;;;;10156037;28;20051;-74
2024/01/19 20:20:08;;;;;;;5.00;3.65;;;;;;;;;;10164821;28;20044;-74
2024/01/19 20:25:00;;;;;;;9.25;6.15;;;;;;;;;;10156716;28;20067;-74
2024/01/19 20:29:52;;;;;;;9.13;5.47;;;;;;;;;;10168296;28;20040;-74
2024/01/19 20:34:44;;;;;;;9.88;6.95;;;;;;;;;;10157413;28;20054;-74
2024/01/19 20:39:38;;;;;;;11.15;10.05;;;;;;;;;;10160621;28;20040;-74
2024/01/19 20:44:30;;;;;;;4.60;3.92;;;;;;;;;;10152664;28;20068;-74
2024/01/19 20:49:23;;;;;;;9.32;6.70;;;;;;;;;;10153138;28;20110;-74
2024/01/19 20:54:15;;;;;;;8.30;5.53;;;;;;;;;;10152144;28;20348;-74
2024/01/19 20:59:07;;;;;;;12.25;8.15;;;;;;;;;;10167501;28;20048;-73
2024/01/19 21:03:59;;;;;;;11.77;9.55;;;;;;;;;;10181320;28;20048;-74
2024/01/19 21:08:51;;;;;;;9.95;7.80;;;;;;;;;;10182962;28;20040;-74
2024/01/19 21:13:43;;;;;;;11.57;9.90;;;;;;;;;;10179928;28;20040;-74
2024/01/19 21:18:37;;;;;;;15.82;8.77;;;;;;;;;;10180856;28;20081;-73
2024/01/19 21:23:31;;;;;;;14.70;10.82;;;;;;;;;;10181823;28;20051;-74
2024/01/19 21:28:23;;;;;;;15.20;12.00;;;;;;;;;;10166233;28;20410;-74
2024/01/19 21:33:15;;;;;;;17.85;11.52;;;;;;;;;;10180817;28;20036;-73
2024/01/19 21:38:07;;;;;;;9.25;8.35;;;;;;;;;;10181888;28;20076;-73
2024/01/19 21:42:59;;;;;;;10.35;9.32;;;;;;;;;;10181203;28;20183;-73
2024/01/19 21:47:51;;;;;;;8.80;8.00;;;;;;;;;;10183173;28;20044;-74
2024/01/19 21:52:44;;;;;;;16.58;11.20;;;;;;;;;;10182698;28;20036;-74
2024/01/19 21:57:37;;;;;;;11.73;10.63;;;;;;;;;;10182048;28;20450;-73
2024/01/19 22:02:29;;;;;;;11.88;10.63;;;;;;;;;;10181787;28;20044;-73
2024/01/19 22:07:21;;;;;;;13.35;11.38;;;;;;;;;;10185468;28;20044;-74
2024/01/19 22:12:13;;;;;;;7.70;6.90;;;;;;;;;;10152277;28;20090;-73
2024/01/19 22:17:05;;;;;;;8.15;6.50;;;;;;;;;;10179334;28;20078;-74
2024/01/19 22:21:57;;;;;;;11.63;9.23;;;;;;;;;;10189563;28;20047;-73
2024/01/19 22:26:49;;;;;;;12.10;10.90;;;;;;;;;;10187718;28;20059;-73
2024/01/19 22:31:42;;;;;;;10.57;9.48;;;;;;;;;;10175144;28;20050;-74
2024/01/19 22:36:35;;;;;;;10.05;8.63;;;;;;;;;;10190243;28;20052;-74
2024/01/19 22:41:27;;;;;;;10.35;9.35;;;;;;;;;;10164548;28;20121;-74
2024/01/19 22:46:19;;;;;;;10.60;9.60;;;;;;;;;;10190272;28;20048;-73
2024/01/19 22:51:12;;;;;;;8.52;7.80;;;;;;;;;;10190473;28;20044;-74
2024/01/19 22:56:05;;;;;;;9.40;8.43;;;;;;;;;;10189616;28;20048;-73
2024/01/19 23:00:57;;;;;;;9.13;8.23;;;;;;;;;;10189449;28;20044;-74
2024/01/19 23:05:49;;;;;;;24.60;20.17;;;;;;;;;;10189643;28;20127;-74
2024/01/19 23:10:41;;;;;;;11.15;10.05;;;;;;;;;;10172817;28;20040;-73
2024/01/19 23:15:34;;;;;;;10.45;9.50;;;;;;;;;;10170270;28;20046;-74
2024/01/19 23:20:26;;;;;;;13.55;12.05;;;;;;;;;;10188754;28;20040;-73
2024/01/19 23:25:18;;;;;;;12.45;11.32;;;;;;;;;;10189322;28;20382;-73
2024/01/19 23:30:23;;;;;;;24.70;20.75;;;;;;;;;;10189429;28;20043;-73
2024/01/19 23:35:17;;;;;;;17.55;15.68;;;;;;;;;;10188639;28;20040;-74
2024/01/19 23:40:09;;;;;;;23.75;19.45;;;;;;;;;;10188179;28;20044;-74
2024/01/19 23:45:02;;;;;;;24.70;21.75;;;;;;;;;;10187963;28;20063;-74
2024/01/19 23:49:54;;;;;;;23.23;20.35;;;;;;;;;;10188104;28;20134;-73
2024/01/19 23:54:46;;;;;;;21.40;19.08;;;;;;;;;;10188298;28;20040;-73
2024/01/19 23:59:38;;;;;;;26.15;21.25;;;;;;;;;;10187867;28;20116;-73
